sensor_id;sensor_type;location;lat;lon;timestamp;temperature;humidity
33803;DHT22;20110;53.120;5.786;2023-08-24T00:01:10;12.90;99.90
33803;DHT22;20110;53.120;5.786;2023-08-24T00:03:38;12.90;99.90
33803;DHT22;20110;53.120;5.786;2023-08-24T00:06:05;12.90;99.90
33803;DHT22;20110;53.120;5.786;2023-08-24T00:08:31;12.90;99.90
33803;DHT22;20110;53.120;5.786;2023-08-24T00:10:58;13.00;99.90
33803;DHT22;20110;53.120;5.786;2023-08-24T00:13:24;13.00;99.90
33803;DHT22;20110;53.120;5.786;2023-08-24T00:15:50;13.10;99.90
33803;DHT22;20110;53.120;5.786;2023-08-24T00:18:19;13.10;99.90
33803;DHT22;20110;53.120;5.786;2023-08-24T00:20:47;13.10;99.90
33803;DHT22;20110;53.120;5.786;2023-08-24T00:23:14;13.20;99.90
33803;DHT22;20110;53.120;5.786;2023-08-24T00:25:40;13.20;99.90
33803;DHT22;20110;53.120;5.786;2023-08-24T00:28:06;13.20;99.90
33803;DHT22;20110;53.120;5.786;2023-08-24T00:30:32;13.20;99.90
33803;DHT22;20110;53.120;5.786;2023-08-24T00:32:58;13.30;99.90
33803;DHT22;20110;53.120;5.786;2023-08-24T00:35:24;13.30;99.90
33803;DHT22;20110;53.120;5.786;2023-08-24T00:37:50;13.30;99.90
33803;DHT22;20110;53.120;5.786;2023-08-24T00:40:17;13.30;99.90
33803;DHT22;20110;53.120;5.786;2023-08-24T00:42:44;13.30;99.90
33803;DHT22;20110;53.120;5.786;2023-08-24T00:45:14;13.20;99.90
33803;DHT22;20110;53.120;5.786;2023-08-24T00:47:45;13.10;99.90
33803;DHT22;20110;53.120;5.786;2023-08-24T00:50:13;13.00;99.90
33803;DHT22;20110;53.120;5.786;2023-08-24T00:52:40;12.80;99.90
33803;DHT22;20110;53.120;5.786;2023-08-24T00:55:08;12.80;99.90
33803;DHT22;20110;53.120;5.786;2023-08-24T00:57:36;12.80;99.90
33803;DHT22;20110;53.120;5.786;2023-08-24T01:00:08;12.80;99.90
33803;DHT22;20110;53.120;5.786;2023-08-24T01:02:39;12.80;99.90
33803;DHT22;20110;53.120;5.786;2023-08-24T01:05:06;12.80;99.90
33803;DHT22;20110;53.120;5.786;2023-08-24T01:07:34;12.80;99.90
33803;DHT22;20110;53.120;5.786;2023-08-24T01:10:03;12.90;99.90
33803;DHT22;20110;53.120;5.786;2023-08-24T01:18:14;13.00;99.90
33803;DHT22;20110;53.120;5.786;2023-08-24T01:20:42;12.90;99.90
33803;DHT22;20110;53.120;5.786;2023-08-24T01:23:28;12.80;99.90
33803;DHT22;20110;53.120;5.786;2023-08-24T01:26:32;12.70;99.90
33803;DHT22;20110;53.120;5.786;2023-08-24T01:29:00;12.70;99.90
33803;DHT22;20110;53.120;5.786;2023-08-24T01:31:26;12.70;99.90
33803;DHT22;20110;53.120;5.786;2023-08-24T01:33:52;12.70;99.90
33803;DHT22;20110;53.120;5.786;2023-08-24T01:36:18;12.70;99.90
33803;DHT22;20110;53.120;5.786;2023-08-24T01:38:54;12.70;99.90
33803;DHT22;20110;53.120;5.786;2023-08-24T01:41:29;12.70;99.90
33803;DHT22;20110;53.120;5.786;2023-08-24T01:43:59;12.70;99.90
33803;DHT22;20110;53.120;5.786;2023-08-24T01:46:29;12.80;99.90
33803;DHT22;20110;53.120;5.786;2023-08-24T01:48:58;12.90;99.90
33803;DHT22;20110;53.120;5.786;2023-08-24T01:51:25;12.90;99.90
33803;DHT22;20110;53.120;5.786;2023-08-24T01:53:52;13.00;99.90
33803;DHT22;20110;53.120;5.786;2023-08-24T01:56:20;13.10;99.90
33803;DHT22;20110;53.120;5.786;2023-08-24T01:58:46;13.10;99.90
33803;DHT22;20110;53.120;5.786;2023-08-24T02:01:12;13.10;99.90
33803;DHT22;20110;53.120;5.786;2023-08-24T02:03:38;13.10;99.90
33803;DHT22;20110;53.120;5.786;2023-08-24T02:06:07;13.10;99.90
33803;DHT22;20110;53.120;5.786;2023-08-24T02:08:34;13.20;99.90
33803;DHT22;20110;53.120;5.786;2023-08-24T02:11:00;13.20;99.90
33803;DHT22;20110;53.120;5.786;2023-08-24T02:13:26;13.30;99.90
33803;DHT22;20110;53.120;5.786;2023-08-24T02:16:07;13.20;99.90
33803;DHT22;20110;53.120;5.786;2023-08-24T02:18:34;13.30;99.90
33803;DHT22;20110;53.120;5.786;2023-08-24T02:21:00;13.40;99.90
33803;DHT22;20110;53.120;5.786;2023-08-24T02:23:31;13.40;99.90
33803;DHT22;20110;53.120;5.786;2023-08-24T02:25:57;13.40;99.90
33803;DHT22;20110;53.120;5.786;2023-08-24T02:28:23;13.50;99.90
33803;DHT22;20110;53.120;5.786;2023-08-24T02:30:49;13.60;99.90
33803;DHT22;20110;53.120;5.786;2023-08-24T02:33:15;13.60;99.90
33803;DHT22;20110;53.120;5.786;2023-08-24T02:35:41;13.60;99.90
33803;DHT22;20110;53.120;5.786;2023-08-24T02:38:09;13.50;99.90
33803;DHT22;20110;53.120;5.786;2023-08-24T02:40:34;13.50;99.90
33803;DHT22;20110;53.120;5.786;2023-08-24T02:43:00;13.50;99.90
33803;DHT22;20110;53.120;5.786;2023-08-24T02:45:26;13.40;99.90
33803;DHT22;20110;53.120;5.786;2023-08-24T02:47:52;13.40;99.90
33803;DHT22;20110;53.120;5.786;2023-08-24T02:50:18;13.40;99.90
33803;DHT22;20110;53.120;5.786;2023-08-24T02:52:43;13.30;99.90
33803;DHT22;20110;53.120;5.786;2023-08-24T02:55:09;13.30;99.90
33803;DHT22;20110;53.120;5.786;2023-08-24T02:57:35;13.20;99.90
33803;DHT22;20110;53.120;5.786;2023-08-24T03:00:02;13.20;99.90
33803;DHT22;20110;53.120;5.786;2023-08-24T03:02:29;13.10;99.90
33803;DHT22;20110;53.120;5.786;2023-08-24T03:04:55;13.00;99.90
33803;DHT22;20110;53.120;5.786;2023-08-24T03:07:21;13.00;99.90
33803;DHT22;20110;53.120;5.786;2023-08-24T03:09:46;13.10;99.90
33803;DHT22;20110;53.120;5.786;2023-08-24T03:12:12;13.10;99.90
33803;DHT22;20110;53.120;5.786;2023-08-24T03:14:38;13.10;99.90
33803;DHT22;20110;53.120;5.786;2023-08-24T03:17:04;13.10;99.90
33803;DHT22;20110;53.120;5.786;2023-08-24T03:19:30;13.10;99.90
33803;DHT22;20110;53.120;5.786;2023-08-24T03:21:56;13.10;99.90
33803;DHT22;20110;53.120;5.786;2023-08-24T03:24:22;13.20;99.90
33803;DHT22;20110;53.120;5.786;2023-08-24T03:26:48;13.20;99.90
33803;DHT22;20110;53.120;5.786;2023-08-24T03:29:14;13.20;99.90
33803;DHT22;20110;53.120;5.786;2023-08-24T03:31:40;13.20;99.90
33803;DHT22;20110;53.120;5.786;2023-08-24T03:34:05;13.20;99.90
33803;DHT22;20110;53.120;5.786;2023-08-24T03:36:31;13.20;99.90
33803;DHT22;20110;53.120;5.786;2023-08-24T03:38:57;13.20;99.90
33803;DHT22;20110;53.120;5.786;2023-08-24T03:41:23;13.20;99.90
33803;DHT22;20110;53.120;5.786;2023-08-24T03:43:49;13.20;99.90
33803;DHT22;20110;53.120;5.786;2023-08-24T03:46:15;13.20;99.90
33803;DHT22;20110;53.120;5.786;2023-08-24T03:48:41;13.30;99.90
33803;DHT22;20110;53.120;5.786;2023-08-24T03:51:07;13.30;99.90
33803;DHT22;20110;53.120;5.786;2023-08-24T03:53:33;13.30;99.90
33803;DHT22;20110;53.120;5.786;2023-08-24T03:55:59;13.30;99.90
33803;DHT22;20110;53.120;5.786;2023-08-24T03:58:25;13.30;99.90
33803;DHT22;20110;53.120;5.786;2023-08-24T04:00:51;13.40;99.90
33803;DHT22;20110;53.120;5.786;2023-08-24T04:03:17;13.40;99.90
33803;DHT22;20110;53.120;5.786;2023-08-24T04:05:43;13.50;99.90
33803;DHT22;20110;53.120;5.786;2023-08-24T04:08:08;13.50;99.90
33803;DHT22;20110;53.120;5.786;2023-08-24T04:10:34;13.50;99.90
33803;DHT22;20110;53.120;5.786;2023-08-24T04:13:00;13.50;99.90
33803;DHT22;20110;53.120;5.786;2023-08-24T04:15:26;13.40;99.90
33803;DHT22;20110;53.120;5.786;2023-08-24T04:17:52;13.30;99.90
33803;DHT22;20110;53.120;5.786;2023-08-24T04:20:18;13.10;99.90
33803;DHT22;20110;53.120;5.786;2023-08-24T04:22:44;13.10;99.90
33803;DHT22;20110;53.120;5.786;2023-08-24T04:25:10;13.10;99.90
33803;DHT22;20110;53.120;5.786;2023-08-24T04:27:36;13.10;99.90
33803;DHT22;20110;53.120;5.786;2023-08-24T04:30:02;13.10;99.90
33803;DHT22;20110;53.120;5.786;2023-08-24T04:32:29;13.00;99.90
33803;DHT22;20110;53.120;5.786;2023-08-24T04:34:57;13.00;99.90
33803;DHT22;20110;53.120;5.786;2023-08-24T04:37:22;13.00;99.90
33803;DHT22;20110;53.120;5.786;2023-08-24T04:39:48;13.00;99.90
33803;DHT22;20110;53.120;5.786;2023-08-24T04:42:14;13.00;99.90
33803;DHT22;20110;53.120;5.786;2023-08-24T04:44:40;13.00;99.90
33803;DHT22;20110;53.120;5.786;2023-08-24T04:47:07;13.00;99.90
33803;DHT22;20110;53.120;5.786;2023-08-24T04:49:32;13.00;99.90
33803;DHT22;20110;53.120;5.786;2023-08-24T04:51:58;12.90;99.90
33803;DHT22;20110;53.120;5.786;2023-08-24T04:54:24;13.00;99.90
33803;DHT22;20110;53.120;5.786;2023-08-24T04:56:50;13.00;99.90
33803;DHT22;20110;53.120;5.786;2023-08-24T04:59:16;12.90;99.90
33803;DHT22;20110;53.120;5.786;2023-08-24T05:01:41;12.90;99.90
33803;DHT22;20110;53.120;5.786;2023-08-24T05:04:07;12.90;99.90
33803;DHT22;20110;53.120;5.786;2023-08-24T05:06:33;12.90;99.90
33803;DHT22;20110;53.120;5.786;2023-08-24T05:08:59;12.90;99.90
33803;DHT22;20110;53.120;5.786;2023-08-24T05:11:27;12.90;99.90
33803;DHT22;20110;53.120;5.786;2023-08-24T05:13:56;12.90;99.90
33803;DHT22;20110;53.120;5.786;2023-08-24T05:16:22;12.90;99.90
33803;DHT22;20110;53.120;5.786;2023-08-24T05:18:48;12.90;99.90
33803;DHT22;20110;53.120;5.786;2023-08-24T05:21:14;12.90;99.90
33803;DHT22;20110;53.120;5.786;2023-08-24T05:23:40;12.90;99.90
33803;DHT22;20110;53.120;5.786;2023-08-24T05:26:06;13.00;99.90
33803;DHT22;20110;53.120;5.786;2023-08-24T05:28:32;13.00;99.90
33803;DHT22;20110;53.120;5.786;2023-08-24T05:30:58;13.00;99.90
33803;DHT22;20110;53.120;5.786;2023-08-24T05:33:25;13.00;99.90
33803;DHT22;20110;53.120;5.786;2023-08-24T05:35:52;13.10;99.90
33803;DHT22;20110;53.120;5.786;2023-08-24T05:38:18;13.10;99.90
33803;DHT22;20110;53.120;5.786;2023-08-24T05:40:49;13.20;99.90
33803;DHT22;20110;53.120;5.786;2023-08-24T05:43:15;13.30;99.90
33803;DHT22;20110;53.120;5.786;2023-08-24T05:45:41;13.30;99.90
33803;DHT22;20110;53.120;5.786;2023-08-24T05:48:10;13.40;99.90
33803;DHT22;20110;53.120;5.786;2023-08-24T05:50:36;13.50;99.90
33803;DHT22;20110;53.120;5.786;2023-08-24T05:53:03;13.60;99.90
33803;DHT22;20110;53.120;5.786;2023-08-24T05:55:29;13.70;99.90
33803;DHT22;20110;53.120;5.786;2023-08-24T05:57:55;13.70;99.90
33803;DHT22;20110;53.120;5.786;2023-08-24T06:00:21;13.80;99.90
33803;DHT22;20110;53.120;5.786;2023-08-24T06:02:48;13.90;99.90
33803;DHT22;20110;53.120;5.786;2023-08-24T06:05:14;14.00;99.90
33803;DHT22;20110;53.120;5.786;2023-08-24T06:07:39;14.10;99.90
33803;DHT22;20110;53.120;5.786;2023-08-24T06:10:06;14.20;99.90
33803;DHT22;20110;53.120;5.786;2023-08-24T06:12:32;14.20;99.90
33803;DHT22;20110;53.120;5.786;2023-08-24T06:14:58;14.30;99.90
33803;DHT22;20110;53.120;5.786;2023-08-24T06:17:24;14.40;99.90
33803;DHT22;20110;53.120;5.786;2023-08-24T06:19:49;14.50;99.90
33803;DHT22;20110;53.120;5.786;2023-08-24T06:22:15;14.60;99.90
33803;DHT22;20110;53.120;5.786;2023-08-24T06:24:41;14.70;99.90
33803;DHT22;20110;53.120;5.786;2023-08-24T06:27:07;14.70;99.90
33803;DHT22;20110;53.120;5.786;2023-08-24T06:29:32;14.80;99.90
33803;DHT22;20110;53.120;5.786;2023-08-24T06:31:58;14.90;99.90
33803;DHT22;20110;53.120;5.786;2023-08-24T06:34:24;15.00;99.90
33803;DHT22;20110;53.120;5.786;2023-08-24T06:36:50;15.10;99.90
33803;DHT22;20110;53.120;5.786;2023-08-24T06:39:18;15.20;99.90
33803;DHT22;20110;53.120;5.786;2023-08-24T06:41:44;15.30;99.90
33803;DHT22;20110;53.120;5.786;2023-08-24T06:44:10;15.40;99.90
33803;DHT22;20110;53.120;5.786;2023-08-24T06:46:36;15.50;99.90
33803;DHT22;20110;53.120;5.786;2023-08-24T06:49:02;15.50;99.90
33803;DHT22;20110;53.120;5.786;2023-08-24T06:51:28;15.60;99.90
33803;DHT22;20110;53.120;5.786;2023-08-24T06:53:54;15.70;99.90
33803;DHT22;20110;53.120;5.786;2023-08-24T06:56:20;15.80;99.90
33803;DHT22;20110;53.120;5.786;2023-08-24T06:58:47;15.80;99.90
33803;DHT22;20110;53.120;5.786;2023-08-24T07:01:13;15.80;99.90
33803;DHT22;20110;53.120;5.786;2023-08-24T07:03:40;15.90;99.90
33803;DHT22;20110;53.120;5.786;2023-08-24T07:06:06;16.00;99.90
33803;DHT22;20110;53.120;5.786;2023-08-24T07:08:33;16.10;99.90
33803;DHT22;20110;53.120;5.786;2023-08-24T07:11:00;16.10;99.90
33803;DHT22;20110;53.120;5.786;2023-08-24T07:13:27;16.20;99.90
33803;DHT22;20110;53.120;5.786;2023-08-24T07:15:53;16.30;99.90
33803;DHT22;20110;53.120;5.786;2023-08-24T07:18:21;16.40;99.90
33803;DHT22;20110;53.120;5.786;2023-08-24T07:20:47;16.50;99.90
33803;DHT22;20110;53.120;5.786;2023-08-24T07:23:13;16.60;99.90
33803;DHT22;20110;53.120;5.786;2023-08-24T07:25:39;16.60;99.90
33803;DHT22;20110;53.120;5.786;2023-08-24T07:28:06;16.70;99.90
33803;DHT22;20110;53.120;5.786;2023-08-24T07:30:34;16.70;99.90
33803;DHT22;20110;53.120;5.786;2023-08-24T07:33:02;16.80;99.90
33803;DHT22;20110;53.120;5.786;2023-08-24T07:35:31;16.90;99.90
33803;DHT22;20110;53.120;5.786;2023-08-24T07:37:57;17.00;99.90
33803;DHT22;20110;53.120;5.786;2023-08-24T07:40:23;17.10;99.90
33803;DHT22;20110;53.120;5.786;2023-08-24T07:42:51;17.20;99.90
33803;DHT22;20110;53.120;5.786;2023-08-24T07:45:20;17.30;99.90
33803;DHT22;20110;53.120;5.786;2023-08-24T07:47:46;17.50;99.90
33803;DHT22;20110;53.120;5.786;2023-08-24T07:50:12;17.50;99.90
33803;DHT22;20110;53.120;5.786;2023-08-24T07:52:38;17.70;99.90
33803;DHT22;20110;53.120;5.786;2023-08-24T07:55:06;17.70;99.90
33803;DHT22;20110;53.120;5.786;2023-08-24T07:57:36;17.70;99.90
33803;DHT22;20110;53.120;5.786;2023-08-24T08:00:06;17.80;99.90
33803;DHT22;20110;53.120;5.786;2023-08-24T08:02:34;17.90;99.90
33803;DHT22;20110;53.120;5.786;2023-08-24T08:05:04;18.00;99.90
33803;DHT22;20110;53.120;5.786;2023-08-24T08:07:32;18.10;99.90
33803;DHT22;20110;53.120;5.786;2023-08-24T08:09:59;18.20;99.90
33803;DHT22;20110;53.120;5.786;2023-08-24T08:12:26;18.20;99.90
33803;DHT22;20110;53.120;5.786;2023-08-24T08:14:52;18.30;99.90
33803;DHT22;20110;53.120;5.786;2023-08-24T08:17:18;18.40;99.90
33803;DHT22;20110;53.120;5.786;2023-08-24T08:19:43;18.60;99.90
33803;DHT22;20110;53.120;5.786;2023-08-24T08:22:09;18.60;99.90
33803;DHT22;20110;53.120;5.786;2023-08-24T08:24:35;18.70;99.90
33803;DHT22;20110;53.120;5.786;2023-08-24T08:27:01;18.70;99.90
33803;DHT22;20110;53.120;5.786;2023-08-24T08:29:26;18.80;99.90
33803;DHT22;20110;53.120;5.786;2023-08-24T08:31:52;18.80;99.90
33803;DHT22;20110;53.120;5.786;2023-08-24T08:34:18;19.00;99.90
33803;DHT22;20110;53.120;5.786;2023-08-24T08:36:44;19.20;99.90
33803;DHT22;20110;53.120;5.786;2023-08-24T08:39:09;19.30;99.90
33803;DHT22;20110;53.120;5.786;2023-08-24T08:41:42;19.40;99.90
33803;DHT22;20110;53.120;5.786;2023-08-24T08:44:12;19.60;99.90
33803;DHT22;20110;53.120;5.786;2023-08-24T08:46:43;19.70;99.90
33803;DHT22;20110;53.120;5.786;2023-08-24T08:49:13;19.70;99.90
33803;DHT22;20110;53.120;5.786;2023-08-24T08:51:41;19.70;99.90
33803;DHT22;20110;53.120;5.786;2023-08-24T08:54:08;19.60;99.90
33803;DHT22;20110;53.120;5.786;2023-08-24T08:56:34;19.80;99.90
33803;DHT22;20110;53.120;5.786;2023-08-24T08:59:01;19.80;99.90
33803;DHT22;20110;53.120;5.786;2023-08-24T09:01:30;19.90;99.90
33803;DHT22;20110;53.120;5.786;2023-08-24T09:03:57;20.20;99.90
33803;DHT22;20110;53.120;5.786;2023-08-24T09:06:23;20.40;1.00
33803;DHT22;20110;53.120;5.786;2023-08-24T09:08:50;20.40;99.90
33803;DHT22;20110;53.120;5.786;2023-08-24T09:11:17;20.40;65.70
33803;DHT22;20110;53.120;5.786;2023-08-24T09:13:44;20.50;1.00
33803;DHT22;20110;53.120;5.786;2023-08-24T09:16:11;20.40;1.00
33803;DHT22;20110;53.120;5.786;2023-08-24T09:18:43;20.50;1.00
33803;DHT22;20110;53.120;5.786;2023-08-24T09:21:13;20.50;13.20
33803;DHT22;20110;53.120;5.786;2023-08-24T09:23:53;20.40;99.90
33803;DHT22;20110;53.120;5.786;2023-08-24T09:26:30;20.70;99.90
33803;DHT22;20110;53.120;5.786;2023-08-24T09:28:59;20.70;99.90
33803;DHT22;20110;53.120;5.786;2023-08-24T09:31:37;20.70;99.90
33803;DHT22;20110;53.120;5.786;2023-08-24T09:34:04;20.60;99.90
33803;DHT22;20110;53.120;5.786;2023-08-24T09:36:32;20.70;99.90
33803;DHT22;20110;53.120;5.786;2023-08-24T09:38:59;20.70;99.90
33803;DHT22;20110;53.120;5.786;2023-08-24T09:41:38;20.60;93.50
33803;DHT22;20110;53.120;5.786;2023-08-24T09:44:14;20.40;99.90
33803;DHT22;20110;53.120;5.786;2023-08-24T09:46:42;20.20;99.90
33803;DHT22;20110;53.120;5.786;2023-08-24T09:49:11;20.20;99.90
33803;DHT22;20110;53.120;5.786;2023-08-24T09:51:39;20.10;99.90
33803;DHT22;20110;53.120;5.786;2023-08-24T09:54:10;20.00;99.90
33803;DHT22;20110;53.120;5.786;2023-08-24T09:56:38;19.90;1.00
33803;DHT22;20110;53.120;5.786;2023-08-24T09:59:14;19.80;59.50
33803;DHT22;20110;53.120;5.786;2023-08-24T10:01:49;19.90;99.90
33803;DHT22;20110;53.120;5.786;2023-08-24T10:04:19;19.80;99.90
33803;DHT22;20110;53.120;5.786;2023-08-24T10:06:59;19.70;99.90
33803;DHT22;20110;53.120;5.786;2023-08-24T10:10:03;19.50;99.90
33803;DHT22;20110;53.120;5.786;2023-08-24T10:12:41;19.40;99.90
33803;DHT22;20110;53.120;5.786;2023-08-24T10:15:12;19.30;99.90
33803;DHT22;20110;53.120;5.786;2023-08-24T10:17:39;19.20;99.90
33803;DHT22;20110;53.120;5.786;2023-08-24T10:20:06;19.10;99.90
33803;DHT22;20110;53.120;5.786;2023-08-24T10:22:36;19.00;99.90
33803;DHT22;20110;53.120;5.786;2023-08-24T10:25:07;18.90;99.90
33803;DHT22;20110;53.120;5.786;2023-08-24T10:27:34;18.90;99.90
33803;DHT22;20110;53.120;5.786;2023-08-24T10:30:01;18.80;99.90
33803;DHT22;20110;53.120;5.786;2023-08-24T10:32:28;18.70;99.90
33803;DHT22;20110;53.120;5.786;2023-08-24T10:34:55;18.60;99.90
33803;DHT22;20110;53.120;5.786;2023-08-24T10:37:26;18.60;99.90
33803;DHT22;20110;53.120;5.786;2023-08-24T10:39:53;18.50;99.90
33803;DHT22;20110;53.120;5.786;2023-08-24T10:42:19;18.40;99.90
33803;DHT22;20110;53.120;5.786;2023-08-24T10:44:47;18.30;99.90
33803;DHT22;20110;53.120;5.786;2023-08-24T10:49:43;18.20;99.90
33803;DHT22;20110;53.120;5.786;2023-08-24T10:52:25;18.10;99.90
33803;DHT22;20110;53.120;5.786;2023-08-24T10:55:01;18.20;99.90
33803;DHT22;20110;53.120;5.786;2023-08-24T10:57:38;18.10;99.90
33803;DHT22;20110;53.120;5.786;2023-08-24T11:00:11;18.10;99.90
33803;DHT22;20110;53.120;5.786;2023-08-24T11:02:48;18.10;99.90
33803;DHT22;20110;53.120;5.786;2023-08-24T11:05:20;18.00;99.90
33803;DHT22;20110;53.120;5.786;2023-08-24T11:08:01;18.00;99.90
33803;DHT22;20110;53.120;5.786;2023-08-24T11:15:44;17.70;99.90
33803;DHT22;20110;53.120;5.786;2023-08-24T11:18:22;17.70;99.90
33803;DHT22;20110;53.120;5.786;2023-08-24T11:21:02;17.70;99.90
33803;DHT22;20110;53.120;5.786;2023-08-24T11:23:29;17.80;99.90
33803;DHT22;20110;53.120;5.786;2023-08-24T11:25:57;17.80;99.90
33803;DHT22;20110;53.120;5.786;2023-08-24T11:28:27;17.90;99.90
33803;DHT22;20110;53.120;5.786;2023-08-24T11:30:55;18.00;99.90
33803;DHT22;20110;53.120;5.786;2023-08-24T11:33:35;18.10;99.90
33803;DHT22;20110;53.120;5.786;2023-08-24T11:36:03;18.10;99.90
33803;DHT22;20110;53.120;5.786;2023-08-24T11:38:42;18.20;99.90
33803;DHT22;20110;53.120;5.786;2023-08-24T11:41:19;18.00;99.90
33803;DHT22;20110;53.120;5.786;2023-08-24T11:43:48;18.00;99.90
33803;DHT22;20110;53.120;5.786;2023-08-24T11:46:17;17.90;99.90
33803;DHT22;20110;53.120;5.786;2023-08-24T11:48:44;17.90;99.90
33803;DHT22;20110;53.120;5.786;2023-08-24T11:51:12;17.80;99.90
33803;DHT22;20110;53.120;5.786;2023-08-24T11:53:42;17.90;99.90
33803;DHT22;20110;53.120;5.786;2023-08-24T11:56:11;17.90;99.90
33803;DHT22;20110;53.120;5.786;2023-08-24T11:58:41;17.90;99.90
33803;DHT22;20110;53.120;5.786;2023-08-24T12:01:10;18.20;99.90
33803;DHT22;20110;53.120;5.786;2023-08-24T12:03:38;18.20;99.90
33803;DHT22;20110;53.120;5.786;2023-08-24T12:06:12;18.30;99.90
33803;DHT22;20110;53.120;5.786;2023-08-24T12:08:40;18.30;99.90
33803;DHT22;20110;53.120;5.786;2023-08-24T12:11:16;18.30;99.90
33803;DHT22;20110;53.120;5.786;2023-08-24T12:13:48;18.20;99.90
33803;DHT22;20110;53.120;5.786;2023-08-24T12:16:18;18.10;99.90
33803;DHT22;20110;53.120;5.786;2023-08-24T12:18:53;18.10;99.90
33803;DHT22;20110;53.120;5.786;2023-08-24T12:21:24;18.10;99.90
33803;DHT22;20110;53.120;5.786;2023-08-24T12:24:02;18.10;99.90
33803;DHT22;20110;53.120;5.786;2023-08-24T12:26:32;18.20;99.90
33803;DHT22;20110;53.120;5.786;2023-08-24T12:29:04;18.10;99.90
33803;DHT22;20110;53.120;5.786;2023-08-24T12:31:31;17.90;99.90
33803;DHT22;20110;53.120;5.786;2023-08-24T12:34:06;17.90;99.90
33803;DHT22;20110;53.120;5.786;2023-08-24T12:36:36;18.00;99.90
33803;DHT22;20110;53.120;5.786;2023-08-24T12:39:04;18.00;99.90
33803;DHT22;20110;53.120;5.786;2023-08-24T12:41:31;18.10;99.90
33803;DHT22;20110;53.120;5.786;2023-08-24T12:43:57;17.80;99.90
33803;DHT22;20110;53.120;5.786;2023-08-24T12:46:23;17.90;99.90
33803;DHT22;20110;53.120;5.786;2023-08-24T12:48:50;17.90;99.90
33803;DHT22;20110;53.120;5.786;2023-08-24T12:51:16;17.80;99.90
33803;DHT22;20110;53.120;5.786;2023-08-24T12:53:42;17.70;99.90
33803;DHT22;20110;53.120;5.786;2023-08-24T12:56:08;17.60;99.90
33803;DHT22;20110;53.120;5.786;2023-08-24T12:58:34;17.60;99.90
33803;DHT22;20110;53.120;5.786;2023-08-24T13:01:00;17.60;99.90
33803;DHT22;20110;53.120;5.786;2023-08-24T13:03:26;17.70;99.90
33803;DHT22;20110;53.120;5.786;2023-08-24T13:05:53;17.60;99.90
33803;DHT22;20110;53.120;5.786;2023-08-24T13:08:19;17.60;99.90
33803;DHT22;20110;53.120;5.786;2023-08-24T13:10:46;17.70;99.90
33803;DHT22;20110;53.120;5.786;2023-08-24T13:13:12;17.80;99.90
33803;DHT22;20110;53.120;5.786;2023-08-24T13:15:38;17.80;99.90
33803;DHT22;20110;53.120;5.786;2023-08-24T13:18:04;17.70;99.90
33803;DHT22;20110;53.120;5.786;2023-08-24T13:20:30;17.80;99.90
33803;DHT22;20110;53.120;5.786;2023-08-24T13:22:56;17.80;99.90
33803;DHT22;20110;53.120;5.786;2023-08-24T13:25:22;18.10;99.90
33803;DHT22;20110;53.120;5.786;2023-08-24T13:27:47;18.00;99.90
33803;DHT22;20110;53.120;5.786;2023-08-24T13:30:15;18.00;99.90
33803;DHT22;20110;53.120;5.786;2023-08-24T13:32:40;18.00;99.90
33803;DHT22;20110;53.120;5.786;2023-08-24T13:35:07;18.10;99.90
33803;DHT22;20110;53.120;5.786;2023-08-24T13:37:34;18.10;99.90
33803;DHT22;20110;53.120;5.786;2023-08-24T13:40:00;18.10;99.90
33803;DHT22;20110;53.120;5.786;2023-08-24T13:42:25;18.10;99.90
33803;DHT22;20110;53.120;5.786;2023-08-24T13:44:51;18.10;99.90
33803;DHT22;20110;53.120;5.786;2023-08-24T13:47:17;18.10;99.90
33803;DHT22;20110;53.120;5.786;2023-08-24T13:49:43;18.10;99.90
33803;DHT22;20110;53.120;5.786;2023-08-24T13:52:09;18.20;99.90
33803;DHT22;20110;53.120;5.786;2023-08-24T13:54:35;18.20;99.90
33803;DHT22;20110;53.120;5.786;2023-08-24T13:57:01;18.10;99.90
33803;DHT22;20110;53.120;5.786;2023-08-24T13:59:27;18.10;99.90
33803;DHT22;20110;53.120;5.786;2023-08-24T14:01:52;18.20;99.90
33803;DHT22;20110;53.120;5.786;2023-08-24T14:04:18;18.20;99.90
33803;DHT22;20110;53.120;5.786;2023-08-24T14:06:45;18.20;99.90
33803;DHT22;20110;53.120;5.786;2023-08-24T14:09:11;18.30;99.90
33803;DHT22;20110;53.120;5.786;2023-08-24T14:11:44;18.30;99.90
33803;DHT22;20110;53.120;5.786;2023-08-24T14:14:09;18.40;99.90
33803;DHT22;20110;53.120;5.786;2023-08-24T14:16:36;18.60;99.90
33803;DHT22;20110;53.120;5.786;2023-08-24T14:19:01;18.70;99.90
33803;DHT22;20110;53.120;5.786;2023-08-24T14:21:27;18.70;99.90
33803;DHT22;20110;53.120;5.786;2023-08-24T14:23:53;18.80;99.90
33803;DHT22;20110;53.120;5.786;2023-08-24T14:26:19;18.90;99.90
33803;DHT22;20110;53.120;5.786;2023-08-24T14:28:54;18.90;99.90
33803;DHT22;20110;53.120;5.786;2023-08-24T14:31:23;18.90;99.90
33803;DHT22;20110;53.120;5.786;2023-08-24T14:33:51;18.80;99.90
33803;DHT22;20110;53.120;5.786;2023-08-24T14:36:18;18.80;99.90
33803;DHT22;20110;53.120;5.786;2023-08-24T14:38:46;18.80;99.90
33803;DHT22;20110;53.120;5.786;2023-08-24T14:41:13;18.70;99.90
33803;DHT22;20110;53.120;5.786;2023-08-24T14:43:40;18.70;99.90
33803;DHT22;20110;53.120;5.786;2023-08-24T14:46:07;18.70;99.90
33803;DHT22;20110;53.120;5.786;2023-08-24T14:48:33;18.80;99.90
33803;DHT22;20110;53.120;5.786;2023-08-24T14:51:00;18.70;99.90
33803;DHT22;20110;53.120;5.786;2023-08-24T14:53:27;18.70;99.90
33803;DHT22;20110;53.120;5.786;2023-08-24T14:55:53;18.80;99.90
33803;DHT22;20110;53.120;5.786;2023-08-24T14:58:26;18.80;99.90
33803;DHT22;20110;53.120;5.786;2023-08-24T15:00:54;18.90;99.90
33803;DHT22;20110;53.120;5.786;2023-08-24T15:03:23;18.90;99.90
33803;DHT22;20110;53.120;5.786;2023-08-24T15:06:01;18.80;99.90
33803;DHT22;20110;53.120;5.786;2023-08-24T15:08:33;18.90;99.90
33803;DHT22;20110;53.120;5.786;2023-08-24T15:11:01;18.80;99.90
33803;DHT22;20110;53.120;5.786;2023-08-24T15:13:28;18.10;99.90
33803;DHT22;20110;53.120;5.786;2023-08-24T15:15:56;18.00;99.90
33803;DHT22;20110;53.120;5.786;2023-08-24T15:18:23;18.10;99.90
33803;DHT22;20110;53.120;5.786;2023-08-24T15:20:50;17.90;99.90
33803;DHT22;20110;53.120;5.786;2023-08-24T15:23:28;17.90;99.90
33803;DHT22;20110;53.120;5.786;2023-08-24T15:26:00;18.30;99.90
33803;DHT22;20110;53.120;5.786;2023-08-24T15:28:34;18.50;99.90
33803;DHT22;20110;53.120;5.786;2023-08-24T15:31:01;18.70;99.90
33803;DHT22;20110;53.120;5.786;2023-08-24T15:33:27;18.90;99.90
33803;DHT22;20110;53.120;5.786;2023-08-24T15:35:53;18.90;99.90
33803;DHT22;20110;53.120;5.786;2023-08-24T15:38:18;18.90;99.90
33803;DHT22;20110;53.120;5.786;2023-08-24T15:40:52;19.00;99.90
33803;DHT22;20110;53.120;5.786;2023-08-24T15:43:22;19.20;99.90
33803;DHT22;20110;53.120;5.786;2023-08-24T15:45:49;19.20;99.90
33803;DHT22;20110;53.120;5.786;2023-08-24T15:48:17;19.30;99.90